sensor_id;sensor_type;location;lat;lon;timestamp;P1;durP1;ratioP1;P2;durP2;ratioP2
10902;SDS011;5504;47.312;11.060;2023-12-20T00:01:24;3.17;;;2.73;;
10902;SDS011;5504;47.312;11.060;2023-12-20T00:03:49;4.33;;;3.50;;
10902;SDS011;5504;47.312;11.060;2023-12-20T00:06:15;3.67;;;2.87;;
10902;SDS011;5504;47.312;11.060;2023-12-20T00:08:41;3.47;;;3.00;;
10902;SDS011;5504;47.312;11.060;2023-12-20T00:11:07;4.83;;;3.00;;
10902;SDS011;5504;47.312;11.060;2023-12-20T00:13:33;3.90;;;3.07;;
10902;SDS011;5504;47.312;11.060;2023-12-20T00:15:58;3.67;;;2.60;;
10902;SDS011;5504;47.312;11.060;2023-12-20T00:18:24;4.47;;;2.90;;
10902;SDS011;5504;47.312;11.060;2023-12-20T00:20:50;8.03;;;4.33;;
10902;SDS011;5504;47.312;11.060;2023-12-20T00:23:16;4.23;;;3.30;;
10902;SDS011;5504;47.312;11.060;2023-12-20T00:25:41;4.67;;;3.40;;
10902;SDS011;5504;47.312;11.060;2023-12-20T00:28:07;4.33;;;3.03;;
10902;SDS011;5504;47.312;11.060;2023-12-20T00:30:33;4.00;;;3.20;;
10902;SDS011;5504;47.312;11.060;2023-12-20T00:32:58;4.30;;;3.03;;
10902;SDS011;5504;47.312;11.060;2023-12-20T00:35:24;4.20;;;3.00;;
10902;SDS011;5504;47.312;11.060;2023-12-20T00:37:50;3.77;;;3.00;;
10902;SDS011;5504;47.312;11.060;2023-12-20T00:40:16;3.97;;;2.70;;
10902;SDS011;5504;47.312;11.060;2023-12-20T00:42:42;3.73;;;2.60;;
10902;SDS011;5504;47.312;11.060;2023-12-20T00:45:07;3.87;;;3.03;;
10902;SDS011;5504;47.312;11.060;2023-12-20T00:47:33;4.53;;;3.20;;
10902;SDS011;5504;47.312;11.060;2023-12-20T00:49:59;3.87;;;3.00;;
10902;SDS011;5504;47.312;11.060;2023-12-20T00:52:25;4.27;;;3.00;;
10902;SDS011;5504;47.312;11.060;2023-12-20T00:54:51;3.20;;;2.80;;
10902;SDS011;5504;47.312;11.060;2023-12-20T00:57:17;3.80;;;2.57;;
10902;SDS011;5504;47.312;11.060;2023-12-20T00:59:43;3.40;;;2.80;;
10902;SDS011;5504;47.312;11.060;2023-12-20T01:02:08;3.13;;;2.37;;
10902;SDS011;5504;47.312;11.060;2023-12-20T01:04:35;3.10;;;2.80;;
10902;SDS011;5504;47.312;11.060;2023-12-20T01:07:01;4.73;;;3.23;;
10902;SDS011;5504;47.312;11.060;2023-12-20T01:09:27;3.80;;;3.07;;
10902;SDS011;5504;47.312;11.060;2023-12-20T01:11:53;3.10;;;2.50;;
10902;SDS011;5504;47.312;11.060;2023-12-20T01:14:19;3.17;;;2.50;;
10902;SDS011;5504;47.312;11.060;2023-12-20T01:16:45;3.13;;;2.83;;
10902;SDS011;5504;47.312;11.060;2023-12-20T01:19:10;3.67;;;2.60;;
10902;SDS011;5504;47.312;11.060;2023-12-20T01:21:36;2.93;;;2.30;;
10902;SDS011;5504;47.312;11.060;2023-12-20T01:24:02;3.57;;;2.33;;
10902;SDS011;5504;47.312;11.060;2023-12-20T01:26:28;3.27;;;2.27;;
10902;SDS011;5504;47.312;11.060;2023-12-20T01:28:54;2.20;;;2.00;;
10902;SDS011;5504;47.312;11.060;2023-12-20T01:31:20;3.47;;;2.30;;
10902;SDS011;5504;47.312;11.060;2023-12-20T01:33:45;3.57;;;2.50;;
10902;SDS011;5504;47.312;11.060;2023-12-20T01:36:11;4.03;;;2.60;;
10902;SDS011;5504;47.312;11.060;2023-12-20T01:38:37;2.60;;;2.30;;
10902;SDS011;5504;47.312;11.060;2023-12-20T01:41:03;3.73;;;2.83;;
10902;SDS011;5504;47.312;11.060;2023-12-20T01:43:29;4.20;;;3.10;;
10902;SDS011;5504;47.312;11.060;2023-12-20T01:45:56;4.33;;;3.00;;
10902;SDS011;5504;47.312;11.060;2023-12-20T01:48:23;3.73;;;2.60;;
10902;SDS011;5504;47.312;11.060;2023-12-20T01:50:50;3.77;;;2.73;;
10902;SDS011;5504;47.312;11.060;2023-12-20T01:53:16;3.30;;;2.50;;
10902;SDS011;5504;47.312;11.060;2023-12-20T01:55:43;4.07;;;2.80;;
10902;SDS011;5504;47.312;11.060;2023-12-20T01:58:10;3.30;;;2.70;;
10902;SDS011;5504;47.312;11.060;2023-12-20T02:00:37;4.37;;;3.20;;
10902;SDS011;5504;47.312;11.060;2023-12-20T02:03:03;3.27;;;2.87;;
10902;SDS011;5504;47.312;11.060;2023-12-20T02:05:29;5.13;;;4.13;;
10902;SDS011;5504;47.312;11.060;2023-12-20T02:07:56;8.73;;;5.93;;
10902;SDS011;5504;47.312;11.060;2023-12-20T02:10:22;10.80;;;7.20;;
10902;SDS011;5504;47.312;11.060;2023-12-20T02:12:48;13.20;;;8.70;;
10902;SDS011;5504;47.312;11.060;2023-12-20T02:15:14;15.00;;;10.03;;
10902;SDS011;5504;47.312;11.060;2023-12-20T02:17:40;13.97;;;10.23;;
10902;SDS011;5504;47.312;11.060;2023-12-20T02:20:06;14.73;;;10.53;;
10902;SDS011;5504;47.312;11.060;2023-12-20T02:22:32;15.23;;;9.67;;
10902;SDS011;5504;47.312;11.060;2023-12-20T02:24:57;15.90;;;10.80;;
10902;SDS011;5504;47.312;11.060;2023-12-20T02:27:23;15.93;;;10.20;;
10902;SDS011;5504;47.312;11.060;2023-12-20T02:29:49;12.97;;;9.87;;
10902;SDS011;5504;47.312;11.060;2023-12-20T02:32:16;13.70;;;9.67;;
10902;SDS011;5504;47.312;11.060;2023-12-20T02:34:42;14.20;;;9.73;;
10902;SDS011;5504;47.312;11.060;2023-12-20T02:37:08;14.20;;;9.90;;
10902;SDS011;5504;47.312;11.060;2023-12-20T02:39:34;13.27;;;9.63;;
10902;SDS011;5504;47.312;11.060;2023-12-20T02:42:00;13.80;;;9.70;;
10902;SDS011;5504;47.312;11.060;2023-12-20T02:44:25;14.47;;;9.70;;
10902;SDS011;5504;47.312;11.060;2023-12-20T02:46:51;14.10;;;9.07;;
10902;SDS011;5504;47.312;11.060;2023-12-20T02:49:17;11.27;;;8.33;;
10902;SDS011;5504;47.312;11.060;2023-12-20T02:51:43;13.47;;;8.70;;
10902;SDS011;5504;47.312;11.060;2023-12-20T02:54:09;12.53;;;8.50;;
10902;SDS011;5504;47.312;11.060;2023-12-20T02:56:34;11.13;;;7.77;;
10902;SDS011;5504;47.312;11.060;2023-12-20T02:59:00;11.77;;;8.23;;
10902;SDS011;5504;47.312;11.060;2023-12-20T03:01:27;12.50;;;8.70;;
10902;SDS011;5504;47.312;11.060;2023-12-20T03:03:54;13.60;;;7.80;;
10902;SDS011;5504;47.312;11.060;2023-12-20T03:06:19;11.73;;;8.30;;
10902;SDS011;5504;47.312;11.060;2023-12-20T03:08:45;9.67;;;7.13;;
10902;SDS011;5504;47.312;11.060;2023-12-20T03:11:11;9.37;;;7.10;;
10902;SDS011;5504;47.312;11.060;2023-12-20T03:13:37;9.03;;;6.87;;
10902;SDS011;5504;47.312;11.060;2023-12-20T03:16:09;10.83;;;7.73;;
10902;SDS011;5504;47.312;11.060;2023-12-20T03:18:38;9.87;;;6.77;;
10902;SDS011;5504;47.312;11.060;2023-12-20T03:21:04;10.97;;;6.70;;
10902;SDS011;5504;47.312;11.060;2023-12-20T03:23:30;8.87;;;6.63;;
10902;SDS011;5504;47.312;11.060;2023-12-20T03:25:58;8.10;;;5.70;;
10902;SDS011;5504;47.312;11.060;2023-12-20T03:28:25;6.33;;;5.37;;
10902;SDS011;5504;47.312;11.060;2023-12-20T03:30:52;6.20;;;4.87;;
10902;SDS011;5504;47.312;11.060;2023-12-20T03:33:17;8.50;;;6.00;;
10902;SDS011;5504;47.312;11.060;2023-12-20T03:35:43;7.80;;;5.83;;
10902;SDS011;5504;47.312;11.060;2023-12-20T03:38:09;8.97;;;6.47;;
10902;SDS011;5504;47.312;11.060;2023-12-20T03:40:35;6.60;;;5.10;;
10902;SDS011;5504;47.312;11.060;2023-12-20T03:43:00;6.87;;;4.77;;
10902;SDS011;5504;47.312;11.060;2023-12-20T03:45:26;7.43;;;5.70;;
10902;SDS011;5504;47.312;11.060;2023-12-20T03:47:52;10.30;;;7.53;;
10902;SDS011;5504;47.312;11.060;2023-12-20T03:50:24;11.00;;;7.93;;
10902;SDS011;5504;47.312;11.060;2023-12-20T03:52:51;11.57;;;8.13;;
10902;SDS011;5504;47.312;11.060;2023-12-20T03:55:17;10.37;;;7.13;;
10902;SDS011;5504;47.312;11.060;2023-12-20T03:57:43;11.23;;;8.10;;
10902;SDS011;5504;47.312;11.060;2023-12-20T04:00:10;10.13;;;7.03;;
10902;SDS011;5504;47.312;11.060;2023-12-20T04:02:36;7.73;;;5.23;;
10902;SDS011;5504;47.312;11.060;2023-12-20T04:05:06;9.10;;;6.23;;
10902;SDS011;5504;47.312;11.060;2023-12-20T04:07:32;7.90;;;5.60;;
10902;SDS011;5504;47.312;11.060;2023-12-20T04:09:59;8.77;;;6.47;;
10902;SDS011;5504;47.312;11.060;2023-12-20T04:12:25;7.63;;;5.57;;
10902;SDS011;5504;47.312;11.060;2023-12-20T04:14:51;5.13;;;4.47;;
10902;SDS011;5504;47.312;11.060;2023-12-20T04:17:17;5.10;;;4.10;;
10902;SDS011;5504;47.312;11.060;2023-12-20T04:19:43;4.87;;;3.30;;
10902;SDS011;5504;47.312;11.060;2023-12-20T04:22:08;4.30;;;3.43;;
10902;SDS011;5504;47.312;11.060;2023-12-20T04:24:34;4.20;;;3.30;;
10902;SDS011;5504;47.312;11.060;2023-12-20T04:27:00;4.10;;;3.10;;
10902;SDS011;5504;47.312;11.060;2023-12-20T04:29:27;3.97;;;3.30;;
10902;SDS011;5504;47.312;11.060;2023-12-20T04:31:52;4.23;;;3.17;;
10902;SDS011;5504;47.312;11.060;2023-12-20T04:34:18;5.80;;;3.57;;
10902;SDS011;5504;47.312;11.060;2023-12-20T04:36:44;58.53;;;29.70;;
10902;SDS011;5504;47.312;11.060;2023-12-20T04:39:11;30.90;;;17.73;;
10902;SDS011;5504;47.312;11.060;2023-12-20T04:41:37;31.90;;;18.67;;
10902;SDS011;5504;47.312;11.060;2023-12-20T04:44:03;38.33;;;20.80;;
10902;SDS011;5504;47.312;11.060;2023-12-20T04:46:29;33.23;;;18.37;;
10902;SDS011;5504;47.312;11.060;2023-12-20T04:48:55;19.87;;;12.90;;
10902;SDS011;5504;47.312;11.060;2023-12-20T04:51:21;23.37;;;15.20;;
10902;SDS011;5504;47.312;11.060;2023-12-20T04:53:47;26.20;;;16.03;;
10902;SDS011;5504;47.312;11.060;2023-12-20T04:56:12;22.40;;;14.20;;
10902;SDS011;5504;47.312;11.060;2023-12-20T04:58:38;19.00;;;12.37;;
10902;SDS011;5504;47.312;11.060;2023-12-20T05:01:08;19.57;;;12.80;;
10902;SDS011;5504;47.312;11.060;2023-12-20T05:03:34;17.97;;;12.30;;
10902;SDS011;5504;47.312;11.060;2023-12-20T05:06:00;15.87;;;11.53;;
10902;SDS011;5504;47.312;11.060;2023-12-20T05:08:25;16.47;;;11.17;;
10902;SDS011;5504;47.312;11.060;2023-12-20T05:10:52;20.70;;;15.17;;
10902;SDS011;5504;47.312;11.060;2023-12-20T05:13:19;20.10;;;14.20;;
10902;SDS011;5504;47.312;11.060;2023-12-20T05:15:45;20.93;;;14.80;;
10902;SDS011;5504;47.312;11.060;2023-12-20T05:18:11;19.07;;;13.83;;
10902;SDS011;5504;47.312;11.060;2023-12-20T05:20:38;17.40;;;11.93;;
10902;SDS011;5504;47.312;11.060;2023-12-20T05:23:03;13.37;;;10.70;;
10902;SDS011;5504;47.312;11.060;2023-12-20T05:25:29;13.10;;;10.27;;
10902;SDS011;5504;47.312;11.060;2023-12-20T05:27:55;13.60;;;10.00;;
10902;SDS011;5504;47.312;11.060;2023-12-20T05:30:21;16.20;;;10.87;;
10902;SDS011;5504;47.312;11.060;2023-12-20T05:32:47;14.67;;;10.20;;
10902;SDS011;5504;47.312;11.060;2023-12-20T05:35:13;13.07;;;9.77;;
10902;SDS011;5504;47.312;11.060;2023-12-20T05:37:38;13.00;;;9.40;;
10902;SDS011;5504;47.312;11.060;2023-12-20T05:40:04;15.83;;;9.83;;
10902;SDS011;5504;47.312;11.060;2023-12-20T05:42:31;13.73;;;10.07;;
10902;SDS011;5504;47.312;11.060;2023-12-20T05:44:56;29.73;;;19.23;;
10902;SDS011;5504;47.312;11.060;2023-12-20T05:47:22;50.27;;;29.33;;
10902;SDS011;5504;47.312;11.060;2023-12-20T05:49:48;20.20;;;13.87;;
10902;SDS011;5504;47.312;11.060;2023-12-20T05:52:15;13.80;;;9.57;;
10902;SDS011;5504;47.312;11.060;2023-12-20T05:54:40;10.37;;;8.50;;
10902;SDS011;5504;47.312;11.060;2023-12-20T05:57:06;12.47;;;8.80;;
10902;SDS011;5504;47.312;11.060;2023-12-20T05:59:32;11.60;;;8.60;;
10902;SDS011;5504;47.312;11.060;2023-12-20T06:01:58;13.13;;;9.83;;
10902;SDS011;5504;47.312;11.060;2023-12-20T06:04:23;11.83;;;9.10;;
10902;SDS011;5504;47.312;11.060;2023-12-20T06:06:49;14.17;;;11.43;;
10902;SDS011;5504;47.312;11.060;2023-12-20T06:09:15;15.63;;;11.30;;
10902;SDS011;5504;47.312;11.060;2023-12-20T06:11:41;14.57;;;10.57;;
10902;SDS011;5504;47.312;11.060;2023-12-20T06:14:06;14.13;;;10.00;;
10902;SDS011;5504;47.312;11.060;2023-12-20T06:16:32;12.67;;;9.63;;
10902;SDS011;5504;47.312;11.060;2023-12-20T06:18:58;10.93;;;8.70;;
10902;SDS011;5504;47.312;11.060;2023-12-20T06:21:23;10.97;;;8.00;;
10902;SDS011;5504;47.312;11.060;2023-12-20T06:23:49;14.23;;;10.30;;
10902;SDS011;5504;47.312;11.060;2023-12-20T06:26:15;16.67;;;12.23;;
10902;SDS011;5504;47.312;11.060;2023-12-20T06:28:40;16.40;;;11.87;;
10902;SDS011;5504;47.312;11.060;2023-12-20T06:31:06;16.40;;;12.33;;
10902;SDS011;5504;47.312;11.060;2023-12-20T06:33:32;17.17;;;13.10;;
10902;SDS011;5504;47.312;11.060;2023-12-20T06:35:58;18.50;;;12.90;;
10902;SDS011;5504;47.312;11.060;2023-12-20T06:38:23;14.80;;;11.17;;
10902;SDS011;5504;47.312;11.060;2023-12-20T06:40:49;16.33;;;11.50;;
10902;SDS011;5504;47.312;11.060;2023-12-20T06:43:15;15.77;;;11.00;;
10902;SDS011;5504;47.312;11.060;2023-12-20T06:45:41;15.97;;;11.30;;
10902;SDS011;5504;47.312;11.060;2023-12-20T06:48:06;13.30;;;9.83;;
10902;SDS011;5504;47.312;11.060;2023-12-20T06:50:32;14.80;;;11.47;;
10902;SDS011;5504;47.312;11.060;2023-12-20T06:52:58;13.33;;;10.70;;
10902;SDS011;5504;47.312;11.060;2023-12-20T06:55:24;14.60;;;10.53;;
10902;SDS011;5504;47.312;11.060;2023-12-20T06:57:50;15.30;;;11.83;;
10902;SDS011;5504;47.312;11.060;2023-12-20T07:00:15;14.40;;;11.67;;
10902;SDS011;5504;47.312;11.060;2023-12-20T07:02:43;14.27;;;10.80;;
10902;SDS011;5504;47.312;11.060;2023-12-20T07:05:09;13.17;;;9.97;;
10902;SDS011;5504;47.312;11.060;2023-12-20T07:07:34;49.53;;;30.80;;
10902;SDS011;5504;47.312;11.060;2023-12-20T07:10:00;38.13;;;24.23;;
10902;SDS011;5504;47.312;11.060;2023-12-20T07:12:26;17.10;;;12.53;;
10902;SDS011;5504;47.312;11.060;2023-12-20T07:14:52;15.83;;;11.20;;
10902;SDS011;5504;47.312;11.060;2023-12-20T07:17:17;14.20;;;10.17;;
10902;SDS011;5504;47.312;11.060;2023-12-20T07:19:43;14.40;;;9.80;;
10902;SDS011;5504;47.312;11.060;2023-12-20T07:22:09;12.70;;;10.40;;
10902;SDS011;5504;47.312;11.060;2023-12-20T07:24:34;14.60;;;10.63;;
10902;SDS011;5504;47.312;11.060;2023-12-20T07:27:00;14.93;;;10.60;;
10902;SDS011;5504;47.312;11.060;2023-12-20T07:29:26;13.60;;;10.10;;
10902;SDS011;5504;47.312;11.060;2023-12-20T07:31:52;16.33;;;11.47;;
10902;SDS011;5504;47.312;11.060;2023-12-20T07:34:19;15.50;;;11.13;;
10902;SDS011;5504;47.312;11.060;2023-12-20T07:36:48;14.03;;;10.60;;
10902;SDS011;5504;47.312;11.060;2023-12-20T07:39:14;14.80;;;10.30;;
10902;SDS011;5504;47.312;11.060;2023-12-20T07:41:39;14.27;;;10.67;;
10902;SDS011;5504;47.312;11.060;2023-12-20T07:44:06;15.63;;;10.97;;
10902;SDS011;5504;47.312;11.060;2023-12-20T07:46:32;13.77;;;10.27;;
10902;SDS011;5504;47.312;11.060;2023-12-20T07:48:58;13.73;;;10.33;;
10902;SDS011;5504;47.312;11.060;2023-12-20T07:51:24;13.20;;;9.63;;
10902;SDS011;5504;47.312;11.060;2023-12-20T07:53:49;15.87;;;10.60;;
10902;SDS011;5504;47.312;11.060;2023-12-20T07:56:17;14.00;;;10.90;;
10902;SDS011;5504;47.312;11.060;2023-12-20T07:58:43;13.90;;;10.60;;
10902;SDS011;5504;47.312;11.060;2023-12-20T08:01:12;13.13;;;9.63;;
10902;SDS011;5504;47.312;11.060;2023-12-20T08:03:38;10.73;;;8.57;;
10902;SDS011;5504;47.312;11.060;2023-12-20T08:06:04;13.37;;;9.00;;
10902;SDS011;5504;47.312;11.060;2023-12-20T08:08:30;14.07;;;9.20;;
10902;SDS011;5504;47.312;11.060;2023-12-20T08:10:56;12.90;;;9.23;;
10902;SDS011;5504;47.312;11.060;2023-12-20T08:13:25;13.20;;;9.53;;
10902;SDS011;5504;47.312;11.060;2023-12-20T08:15:52;14.93;;;11.07;;
10902;SDS011;5504;47.312;11.060;2023-12-20T08:18:18;14.13;;;10.83;;
10902;SDS011;5504;47.312;11.060;2023-12-20T08:20:44;16.40;;;11.80;;
10902;SDS011;5504;47.312;11.060;2023-12-20T08:23:09;16.30;;;12.37;;
10902;SDS011;5504;47.312;11.060;2023-12-20T08:25:35;17.10;;;13.20;;
10902;SDS011;5504;47.312;11.060;2023-12-20T08:28:02;14.77;;;10.73;;
10902;SDS011;5504;47.312;11.060;2023-12-20T08:30:29;16.30;;;11.63;;
10902;SDS011;5504;47.312;11.060;2023-12-20T08:32:56;22.97;;;15.70;;
10902;SDS011;5504;47.312;11.060;2023-12-20T08:35:21;20.40;;;14.37;;
10902;SDS011;5504;47.312;11.060;2023-12-20T08:37:47;20.50;;;14.70;;
10902;SDS011;5504;47.312;11.060;2023-12-20T08:40:13;19.90;;;13.80;;
10902;SDS011;5504;47.312;11.060;2023-12-20T08:42:39;17.53;;;13.10;;
10902;SDS011;5504;47.312;11.060;2023-12-20T08:45:04;15.73;;;11.43;;
10902;SDS011;5504;47.312;11.060;2023-12-20T08:47:31;20.90;;;13.53;;
10902;SDS011;5504;47.312;11.060;2023-12-20T08:49:57;19.93;;;13.47;;
10902;SDS011;5504;47.312;11.060;2023-12-20T08:52:25;22.33;;;15.47;;
10902;SDS011;5504;47.312;11.060;2023-12-20T08:54:52;22.13;;;15.00;;
10902;SDS011;5504;47.312;11.060;2023-12-20T08:57:22;22.20;;;15.73;;
10902;SDS011;5504;47.312;11.060;2023-12-20T08:59:49;23.47;;;15.07;;
10902;SDS011;5504;47.312;11.060;2023-12-20T09:02:15;19.97;;;14.60;;
10902;SDS011;5504;47.312;11.060;2023-12-20T09:04:41;19.77;;;13.60;;
10902;SDS011;5504;47.312;11.060;2023-12-20T09:07:20;22.17;;;14.73;;
10902;SDS011;5504;47.312;11.060;2023-12-20T09:09:47;23.33;;;16.67;;
10902;SDS011;5504;47.312;11.060;2023-12-20T09:12:12;23.87;;;17.70;;
10902;SDS011;5504;47.312;11.060;2023-12-20T09:14:38;24.37;;;17.77;;
10902;SDS011;5504;47.312;11.060;2023-12-20T09:17:04;26.17;;;18.13;;
10902;SDS011;5504;47.312;11.060;2023-12-20T09:19:30;25.37;;;18.20;;
10902;SDS011;5504;47.312;11.060;2023-12-20T09:21:55;25.07;;;18.33;;
10902;SDS011;5504;47.312;11.060;2023-12-20T09:24:21;26.33;;;17.67;;
10902;SDS011;5504;47.312;11.060;2023-12-20T09:26:47;23.57;;;18.33;;
10902;SDS011;5504;47.312;11.060;2023-12-20T09:29:12;25.53;;;18.50;;
10902;SDS011;5504;47.312;11.060;2023-12-20T09:31:40;23.00;;;17.13;;
10902;SDS011;5504;47.312;11.060;2023-12-20T09:34:08;22.33;;;16.10;;
10902;SDS011;5504;47.312;11.060;2023-12-20T09:36:34;25.80;;;18.23;;
10902;SDS011;5504;47.312;11.060;2023-12-20T09:39:01;28.37;;;19.13;;
10902;SDS011;5504;47.312;11.060;2023-12-20T09:41:28;27.23;;;19.53;;
10902;SDS011;5504;47.312;11.060;2023-12-20T09:44:02;27.20;;;19.00;;
10902;SDS011;5504;47.312;11.060;2023-12-20T09:46:28;27.97;;;20.37;;
10902;SDS011;5504;47.312;11.060;2023-12-20T09:48:59;29.43;;;20.00;;
10902;SDS011;5504;47.312;11.060;2023-12-20T09:51:27;29.23;;;20.50;;
10902;SDS011;5504;47.312;11.060;2023-12-20T09:53:54;26.47;;;19.53;;
10902;SDS011;5504;47.312;11.060;2023-12-20T09:56:21;33.17;;;22.87;;
10902;SDS011;5504;47.312;11.060;2023-12-20T09:58:47;39.83;;;25.93;;
10902;SDS011;5504;47.312;11.060;2023-12-20T10:01:13;32.37;;;22.37;;
10902;SDS011;5504;47.312;11.060;2023-12-20T10:03:41;34.77;;;22.47;;
10902;SDS011;5504;47.312;11.060;2023-12-20T10:06:07;30.83;;;20.93;;
10902;SDS011;5504;47.312;11.060;2023-12-20T10:08:33;27.90;;;19.77;;
10902;SDS011;5504;47.312;11.060;2023-12-20T10:10:59;28.90;;;20.97;;
10902;SDS011;5504;47.312;11.060;2023-12-20T10:13:27;26.23;;;19.63;;
10902;SDS011;5504;47.312;11.060;2023-12-20T10:15:54;24.37;;;18.23;;
10902;SDS011;5504;47.312;11.060;2023-12-20T10:18:21;25.37;;;17.60;;
10902;SDS011;5504;47.312;11.060;2023-12-20T10:20:46;24.13;;;17.50;;
10902;SDS011;5504;47.312;11.060;2023-12-20T10:23:13;20.33;;;15.00;;
10902;SDS011;5504;47.312;11.060;2023-12-20T10:25:41;20.97;;;15.37;;
10902;SDS011;5504;47.312;11.060;2023-12-20T10:30:40;24.60;;;17.30;;
10902;SDS011;5504;47.312;11.060;2023-12-20T10:33:06;24.30;;;17.47;;
10902;SDS011;5504;47.312;11.060;2023-12-20T10:35:33;22.33;;;16.13;;
10902;SDS011;5504;47.312;11.060;2023-12-20T10:38:00;22.30;;;16.00;;
10902;SDS011;5504;47.312;11.060;2023-12-20T10:40:29;20.33;;;14.27;;
10902;SDS011;5504;47.312;11.060;2023-12-20T10:42:56;15.60;;;12.23;;
10902;SDS011;5504;47.312;11.060;2023-12-20T10:45:24;18.77;;;13.17;;
10902;SDS011;5504;47.312;11.060;2023-12-20T10:47:50;17.43;;;13.83;;
10902;SDS011;5504;47.312;11.060;2023-12-20T10:50:17;17.90;;;14.57;;
10902;SDS011;5504;47.312;11.060;2023-12-20T10:52:45;19.80;;;15.03;;
10902;SDS011;5504;47.312;11.060;2023-12-20T10:55:12;27.87;;;20.90;;
10902;SDS011;5504;47.312;11.060;2023-12-20T10:57:38;22.50;;;17.73;;
10902;SDS011;5504;47.312;11.060;2023-12-20T11:00:06;25.60;;;19.40;;
10902;SDS011;5504;47.312;11.060;2023-12-20T11:02:39;27.30;;;20.50;;
10902;SDS011;5504;47.312;11.060;2023-12-20T11:07:48;22.27;;;16.90;;
10902;SDS011;5504;47.312;11.060;2023-12-20T11:10:31;23.37;;;16.90;;
10902;SDS011;5504;47.312;11.060;2023-12-20T11:15:42;22.10;;;17.30;;
10902;SDS011;5504;47.312;11.060;2023-12-20T11:18:08;22.53;;;16.70;;
10902;SDS011;5504;47.312;11.060;2023-12-20T11:20:35;19.17;;;13.63;;
10902;SDS011;5504;47.312;11.060;2023-12-20T11:23:02;17.40;;;12.93;;
10902;SDS011;5504;47.312;11.060;2023-12-20T11:25:28;18.73;;;13.93;;
10902;SDS011;5504;47.312;11.060;2023-12-20T11:28:08;18.70;;;14.77;;
10902;SDS011;5504;47.312;11.060;2023-12-20T11:30:51;19.27;;;14.40;;
10902;SDS011;5504;47.312;11.060;2023-12-20T11:33:22;19.13;;;14.90;;
10902;SDS011;5504;47.312;11.060;2023-12-20T11:35:48;19.17;;;13.53;;
10902;SDS011;5504;47.312;11.060;2023-12-20T11:38:14;23.67;;;16.30;;
10902;SDS011;5504;47.312;11.060;2023-12-20T11:40:43;17.93;;;14.67;;
10902;SDS011;5504;47.312;11.060;2023-12-20T11:43:09;16.53;;;14.03;;
10902;SDS011;5504;47.312;11.060;2023-12-20T11:45:35;19.27;;;14.40;;
10902;SDS011;5504;47.312;11.060;2023-12-20T11:48:04;16.90;;;13.00;;
10902;SDS011;5504;47.312;11.060;2023-12-20T11:50:31;19.13;;;15.40;;
10902;SDS011;5504;47.312;11.060;2023-12-20T11:52:57;20.13;;;15.30;;
10902;SDS011;5504;47.312;11.060;2023-12-20T11:55:23;19.87;;;15.13;;
10902;SDS011;5504;47.312;11.060;2023-12-20T11:57:49;20.70;;;14.50;;
10902;SDS011;5504;47.312;11.060;2023-12-20T12:00:16;17.80;;;13.50;;
10902;SDS011;5504;47.312;11.060;2023-12-20T12:02:42;17.13;;;12.90;;
10902;SDS011;5504;47.312;11.060;2023-12-20T12:05:08;16.57;;;12.80;;
10902;SDS011;5504;47.312;11.060;2023-12-20T12:07:34;16.40;;;12.83;;
10902;SDS011;5504;47.312;11.060;2023-12-20T12:10:00;17.07;;;13.20;;
10902;SDS011;5504;47.312;11.060;2023-12-20T12:12:27;18.87;;;15.33;;
10902;SDS011;5504;47.312;11.060;2023-12-20T12:14:54;22.03;;;15.60;;
10902;SDS011;5504;47.312;11.060;2023-12-20T12:17:21;20.67;;;14.80;;
10902;SDS011;5504;47.312;11.060;2023-12-20T12:19:47;20.60;;;15.97;;
10902;SDS011;5504;47.312;11.060;2023-12-20T12:22:14;15.30;;;12.47;;
10902;SDS011;5504;47.312;11.060;2023-12-20T12:24:41;17.53;;;13.43;;
10902;SDS011;5504;47.312;11.060;2023-12-20T12:27:08;15.47;;;12.80;;
10902;SDS011;5504;47.312;11.060;2023-12-20T12:29:35;17.80;;;13.20;;
10902;SDS011;5504;47.312;11.060;2023-12-20T12:32:05;16.67;;;12.83;;
10902;SDS011;5504;47.312;11.060;2023-12-20T12:34:34;15.80;;;12.23;;
10902;SDS011;5504;47.312;11.060;2023-12-20T12:37:01;17.77;;;12.57;;
10902;SDS011;5504;47.312;11.060;2023-12-20T12:39:28;15.30;;;11.77;;
10902;SDS011;5504;47.312;11.060;2023-12-20T12:41:55;14.80;;;11.83;;
10902;SDS011;5504;47.312;11.060;2023-12-20T12:44:22;13.60;;;11.60;;
10902;SDS011;5504;47.312;11.060;2023-12-20T12:46:50;13.80;;;11.37;;
10902;SDS011;5504;47.312;11.060;2023-12-20T12:49:19;13.93;;;10.57;;
10902;SDS011;5504;47.312;11.060;2023-12-20T12:51:46;13.03;;;10.53;;
10902;SDS011;5504;47.312;11.060;2023-12-20T12:54:12;14.80;;;11.17;;
10902;SDS011;5504;47.312;11.060;2023-12-20T12:56:38;12.83;;;9.90;;
10902;SDS011;5504;47.312;11.060;2023-12-20T12:59:04;12.13;;;9.83;;
10902;SDS011;5504;47.312;11.060;2023-12-20T13:01:30;12.67;;;9.33;;
10902;SDS011;5504;47.312;11.060;2023-12-20T13:03:56;10.80;;;8.60;;
10902;SDS011;5504;47.312;11.060;2023-12-20T13:06:22;10.97;;;8.30;;
10902;SDS011;5504;47.312;11.060;2023-12-20T13:08:48;10.43;;;8.57;;
10902;SDS011;5504;47.312;11.060;2023-12-20T13:11:15;10.57;;;8.10;;
10902;SDS011;5504;47.312;11.060;2023-12-20T13:13:40;13.00;;;9.20;;
10902;SDS011;5504;47.312;11.060;2023-12-20T13:16:06;10.53;;;9.03;;
10902;SDS011;5504;47.312;11.060;2023-12-20T13:18:32;13.43;;;9.40;;
10902;SDS011;5504;47.312;11.060;2023-12-20T13:20:58;10.57;;;8.17;;
10902;SDS011;5504;47.312;11.060;2023-12-20T13:23:24;8.50;;;7.10;;
10902;SDS011;5504;47.312;11.060;2023-12-20T13:25:49;11.70;;;8.30;;
10902;SDS011;5504;47.312;11.060;2023-12-20T13:28:15;9.90;;;8.00;;
10902;SDS011;5504;47.312;11.060;2023-12-20T13:30:41;10.03;;;7.73;;
10902;SDS011;5504;47.312;11.060;2023-12-20T13:33:07;10.87;;;8.33;;
10902;SDS011;5504;47.312;11.060;2023-12-20T13:35:33;9.30;;;6.90;;
10902;SDS011;5504;47.312;11.060;2023-12-20T13:38:00;8.77;;;6.70;;
10902;SDS011;5504;47.312;11.060;2023-12-20T13:40:26;7.67;;;6.33;;
10902;SDS011;5504;47.312;11.060;2023-12-20T13:42:52;8.47;;;7.43;;
10902;SDS011;5504;47.312;11.060;2023-12-20T13:45:18;9.53;;;7.33;;
10902;SDS011;5504;47.312;11.060;2023-12-20T13:47:43;9.83;;;7.17;;
10902;SDS011;5504;47.312;11.060;2023-12-20T13:50:09;8.70;;;7.07;;
10902;SDS011;5504;47.312;11.060;2023-12-20T13:52:35;9.13;;;7.23;;
10902;SDS011;5504;47.312;11.060;2023-12-20T13:55:01;8.27;;;6.10;;
10902;SDS011;5504;47.312;11.060;2023-12-20T13:57:27;8.50;;;6.13;;
10902;SDS011;5504;47.312;11.060;2023-12-20T13:59:54;7.50;;;6.20;;
10902;SDS011;5504;47.312;11.060;2023-12-20T14:02:22;7.60;;;5.73;;
10902;SDS011;5504;47.312;11.060;2023-12-20T14:04:48;8.60;;;5.80;;
10902;SDS011;5504;47.312;11.060;2023-12-20T14:07:14;7.10;;;5.90;;
10902;SDS011;5504;47.312;11.060;2023-12-20T14:09:40;8.93;;;6.33;;
10902;SDS011;5504;47.312;11.060;2023-12-20T14:12:11;7.43;;;5.67;;
10902;SDS011;5504;47.312;11.060;2023-12-20T14:14:37;7.13;;;5.90;;
10902;SDS011;5504;47.312;11.060;2023-12-20T14:17:03;7.37;;;5.73;;
10902;SDS011;5504;47.312;11.060;2023-12-20T14:19:31;6.60;;;5.63;;
10902;SDS011;5504;47.312;11.060;2023-12-20T14:21:57;6.90;;;5.50;;
10902;SDS011;5504;47.312;11.060;2023-12-20T14:24:26;8.90;;;6.00;;
10902;SDS011;5504;47.312;11.060;2023-12-20T14:26:52;7.70;;;5.30;;
10902;SDS011;5504;47.312;11.060;2023-12-20T14:29:18;7.63;;;5.90;;
10902;SDS011;5504;47.312;11.060;2023-12-20T14:31:44;7.33;;;6.27;;
10902;SDS011;5504;47.312;11.060;2023-12-20T14:34:10;8.73;;;7.53;;